sensor_id;sensor_type;location;lat;lon;timestamp;pressure;altitude;pressure_sealevel;temperature;humidity
72262;BME280;60173;52.112;8.648;2023-05-02T00:01:18;100696.84;;;11.36;83.21
72262;BME280;60173;52.112;8.648;2023-05-02T00:03:45;100695.72;;;11.37;83.01
72262;BME280;60173;52.112;8.648;2023-05-02T00:06:11;100691.31;;;11.41;82.90
72262;BME280;60173;52.112;8.648;2023-05-02T00:08:38;100692.66;;;11.43;82.84
72262;BME280;60173;52.112;8.648;2023-05-02T00:11:04;100691.72;;;11.48;82.55
72262;BME280;60173;52.112;8.648;2023-05-02T00:13:31;100698.28;;;11.47;82.36
72262;BME280;60173;52.112;8.648;2023-05-02T00:15:57;100693.44;;;11.44;82.48
72262;BME280;60173;52.112;8.648;2023-05-02T00:18:23;100694.94;;;11.36;83.52
72262;BME280;60173;52.112;8.648;2023-05-02T00:20:50;100705.06;;;11.30;84.21
72262;BME280;60173;52.112;8.648;2023-05-02T00:23:16;100705.06;;;11.30;84.58
72262;BME280;60173;52.112;8.648;2023-05-02T00:25:44;100707.16;;;11.20;85.13
72262;BME280;60173;52.112;8.648;2023-05-02T00:28:10;100698.50;;;11.18;85.55
72262;BME280;60173;52.112;8.648;2023-05-02T00:30:44;100704.81;;;11.13;85.35
72262;BME280;60173;52.112;8.648;2023-05-02T00:33:11;100700.91;;;11.19;85.54
72262;BME280;60173;52.112;8.648;2023-05-02T00:35:37;100707.97;;;11.20;85.93
72262;BME280;60173;52.112;8.648;2023-05-02T00:38:04;100699.94;;;11.29;85.19
72262;BME280;60173;52.112;8.648;2023-05-02T00:40:30;100698.78;;;11.16;85.42
72262;BME280;60173;52.112;8.648;2023-05-02T00:42:56;100708.56;;;11.17;85.84
72262;BME280;60173;52.112;8.648;2023-05-02T00:45:23;100698.78;;;11.16;85.76
72262;BME280;60173;52.112;8.648;2023-05-02T00:47:49;100705.75;;;11.22;85.17
72262;BME280;60173;52.112;8.648;2023-05-02T00:50:16;100711.63;;;11.29;84.75
72262;BME280;60173;52.112;8.648;2023-05-02T00:52:43;100706.56;;;11.23;84.74
72262;BME280;60173;52.112;8.648;2023-05-02T00:55:09;100708.13;;;11.10;85.02
72262;BME280;60173;52.112;8.648;2023-05-02T00:57:36;100706.06;;;11.02;85.81
72262;BME280;60173;52.112;8.648;2023-05-02T01:00:03;100714.81;;;10.99;85.89
72262;BME280;60173;52.112;8.648;2023-05-02T01:02:47;100711.06;;;10.95;86.00
72262;BME280;60173;52.112;8.648;2023-05-02T01:05:20;100714.81;;;10.99;86.13
72262;BME280;60173;52.112;8.648;2023-05-02T01:08:02;100718.09;;;10.96;86.10
72262;BME280;60173;52.112;8.648;2023-05-02T01:10:50;100711.59;;;10.97;85.75
72262;BME280;60173;52.112;8.648;2023-05-02T01:15:45;100715.69;;;10.94;84.76
72262;BME280;60173;52.112;8.648;2023-05-02T01:18:13;100716.88;;;11.07;83.94
72262;BME280;60173;52.112;8.648;2023-05-02T01:20:43;100719.06;;;11.05;84.00
72262;BME280;60173;52.112;8.648;2023-05-02T01:23:27;100720.75;;;11.01;84.17
72262;BME280;60173;52.112;8.648;2023-05-02T01:31:22;100732.00;;;11.13;83.34
72262;BME280;60173;52.112;8.648;2023-05-02T01:33:51;100729.06;;;11.09;82.96
72262;BME280;60173;52.112;8.648;2023-05-02T01:36:18;100721.03;;;11.18;82.75
72262;BME280;60173;52.112;8.648;2023-05-02T01:38:46;100724.59;;;11.00;83.45
72262;BME280;60173;52.112;8.648;2023-05-02T01:41:13;100725.59;;;11.04;83.97
72262;BME280;60173;52.112;8.648;2023-05-02T01:43:40;100724.00;;;11.03;84.12
72262;BME280;60173;52.112;8.648;2023-05-02T01:46:08;100729.88;;;11.10;83.99
72262;BME280;60173;52.112;8.648;2023-05-02T01:48:36;100731.03;;;11.04;84.39
72262;BME280;60173;52.112;8.648;2023-05-02T01:51:04;100730.44;;;11.07;84.29
72262;BME280;60173;52.112;8.648;2023-05-02T01:53:33;100740.72;;;11.10;84.17
72262;BME280;60173;52.112;8.648;2023-05-02T01:56:00;100736.34;;;11.14;83.96
72262;BME280;60173;52.112;8.648;2023-05-02T01:58:29;100737.06;;;11.01;84.23
72262;BME280;60173;52.112;8.648;2023-05-02T02:00:58;100749.25;;;10.84;85.55
72262;BME280;60173;52.112;8.648;2023-05-02T02:03:28;100757.06;;;10.91;85.44
72262;BME280;60173;52.112;8.648;2023-05-02T02:05:57;100757.41;;;11.03;85.45
72262;BME280;60173;52.112;8.648;2023-05-02T02:08:24;100764.25;;;11.01;85.12
72262;BME280;60173;52.112;8.648;2023-05-02T02:10:58;100773.25;;;10.96;85.68
72262;BME280;60173;52.112;8.648;2023-05-02T02:13:30;100769.84;;;10.91;85.91
72262;BME280;60173;52.112;8.648;2023-05-02T02:16:03;100771.44;;;10.92;86.62
72262;BME280;60173;52.112;8.648;2023-05-02T02:18:35;100777.91;;;10.96;85.98
72262;BME280;60173;52.112;8.648;2023-05-02T02:21:02;100774.44;;;10.71;87.39
72262;BME280;60173;52.112;8.648;2023-05-02T02:23:32;100779.06;;;10.90;86.75
72262;BME280;60173;52.112;8.648;2023-05-02T02:26:01;100782.31;;;10.92;86.04
72262;BME280;60173;52.112;8.648;2023-05-02T02:28:27;100784.06;;;10.82;86.59
72262;BME280;60173;52.112;8.648;2023-05-02T02:30:54;100783.28;;;11.01;86.22
72262;BME280;60173;52.112;8.648;2023-05-02T02:33:21;100784.88;;;10.83;86.52
72262;BME280;60173;52.112;8.648;2023-05-02T02:36:05;100793.78;;;10.89;86.53
72262;BME280;60173;52.112;8.648;2023-05-02T02:38:45;100793.19;;;10.92;86.21
72262;BME280;60173;52.112;8.648;2023-05-02T02:41:22;100794.69;;;10.79;86.73
72262;BME280;60173;52.112;8.648;2023-05-02T02:46:50;100796.09;;;10.76;86.55
72262;BME280;60173;52.112;8.648;2023-05-02T02:49:33;100798.34;;;10.69;87.07
72262;BME280;60173;52.112;8.648;2023-05-02T02:52:39;100802.66;;;10.70;87.59
72262;BME280;60173;52.112;8.648;2023-05-02T02:55:22;100802.41;;;10.72;86.89
72262;BME280;60173;52.112;8.648;2023-05-02T02:57:56;100810.91;;;10.65;87.27
72262;BME280;60173;52.112;8.648;2023-05-02T03:00:26;100817.38;;;10.69;87.94
72262;BME280;60173;52.112;8.648;2023-05-02T03:02:53;100808.69;;;10.67;87.61
72262;BME280;60173;52.112;8.648;2023-05-02T03:05:20;100817.84;;;10.76;87.63
72262;BME280;60173;52.112;8.648;2023-05-02T03:07:47;100820.09;;;10.69;88.12
72262;BME280;60173;52.112;8.648;2023-05-02T03:10:14;100817.38;;;10.69;87.70
72262;BME280;60173;52.112;8.648;2023-05-02T03:12:40;100827.47;;;10.63;88.33
72262;BME280;60173;52.112;8.648;2023-05-02T03:15:16;100824.88;;;10.77;87.92
72262;BME280;60173;52.112;8.648;2023-05-02T03:17:47;100826.56;;;10.73;87.74
72262;BME280;60173;52.112;8.648;2023-05-02T03:20:13;100830.69;;;10.71;87.91
72262;BME280;60173;52.112;8.648;2023-05-02T03:22:39;100826.56;;;10.73;88.22
72262;BME280;60173;52.112;8.648;2023-05-02T03:25:06;100833.63;;;10.74;88.22
72262;BME280;60173;52.112;8.648;2023-05-02T03:27:32;100832.06;;;10.68;88.65
72262;BME280;60173;52.112;8.648;2023-05-02T03:29:59;100837.50;;;10.68;89.10
72262;BME280;60173;52.112;8.648;2023-05-02T03:32:25;100837.25;;;10.65;89.82
72262;BME280;60173;52.112;8.648;2023-05-02T03:34:52;100840.69;;;10.70;89.15
72262;BME280;60173;52.112;8.648;2023-05-02T03:37:18;100837.13;;;10.51;90.91
72262;BME280;60173;52.112;8.648;2023-05-02T03:39:44;100837.09;;;10.56;90.78
72262;BME280;60173;52.112;8.648;2023-05-02T03:42:11;100844.09;;;10.62;90.84
72262;BME280;60173;52.112;8.648;2023-05-02T03:44:37;100844.81;;;10.44;91.48
72262;BME280;60173;52.112;8.648;2023-05-02T03:47:03;100845.34;;;10.46;91.11
72262;BME280;60173;52.112;8.648;2023-05-02T03:49:33;100839.56;;;10.52;90.69
72262;BME280;60173;52.112;8.648;2023-05-02T03:51:59;100843.94;;;10.48;90.66
72262;BME280;60173;52.112;8.648;2023-05-02T03:54:25;100849.47;;;10.38;91.59
72262;BME280;60173;52.112;8.648;2023-05-02T03:56:53;100845.16;;;10.37;91.14
72262;BME280;60173;52.112;8.648;2023-05-02T03:59:19;100850.59;;;10.61;90.77
72262;BME280;60173;52.112;8.648;2023-05-02T04:01:48;100854.28;;;10.46;90.28
72262;BME280;60173;52.112;8.648;2023-05-02T04:04:15;100859.13;;;10.49;90.48
72262;BME280;60173;52.112;8.648;2023-05-02T04:06:41;100861.09;;;10.44;91.21
72262;BME280;60173;52.112;8.648;2023-05-02T04:09:08;100868.84;;;10.26;92.93
72262;BME280;60173;52.112;8.648;2023-05-02T04:11:34;100867.22;;;10.25;93.55
72262;BME280;60173;52.112;8.648;2023-05-02T04:14:00;100873.31;;;10.12;94.71
72262;BME280;60173;52.112;8.648;2023-05-02T04:16:27;100876.28;;;10.15;95.16
72262;BME280;60173;52.112;8.648;2023-05-02T04:18:53;100882.44;;;10.21;95.07
72262;BME280;60173;52.112;8.648;2023-05-02T04:21:19;100887.28;;;10.29;94.16
72262;BME280;60173;52.112;8.648;2023-05-02T04:23:46;100889.56;;;10.17;94.94
72262;BME280;60173;52.112;8.648;2023-05-02T04:26:13;100890.50;;;10.36;94.17
72262;BME280;60173;52.112;8.648;2023-05-02T04:28:39;100890.09;;;10.19;94.73
72262;BME280;60173;52.112;8.648;2023-05-02T04:31:06;100895.75;;;10.23;95.02
72262;BME280;60173;52.112;8.648;2023-05-02T04:33:33;100897.28;;;10.39;94.43
72262;BME280;60173;52.112;8.648;2023-05-02T04:36:00;100901.94;;;10.33;94.58
72262;BME280;60173;52.112;8.648;2023-05-02T04:38:26;100903.59;;;10.29;94.24
72262;BME280;60173;52.112;8.648;2023-05-02T04:40:52;100910.66;;;10.25;94.91
72262;BME280;60173;52.112;8.648;2023-05-02T04:43:19;100915.34;;;10.14;95.93
72262;BME280;60173;52.112;8.648;2023-05-02T04:45:47;100921.50;;;10.25;95.98
72262;BME280;60173;52.112;8.648;2023-05-02T04:48:13;100918.81;;;10.25;96.19
72262;BME280;60173;52.112;8.648;2023-05-02T04:50:39;100918.88;;;10.15;97.76
72262;BME280;60173;52.112;8.648;2023-05-02T04:53:06;100926.41;;;10.28;97.19
72262;BME280;60173;52.112;8.648;2023-05-02T04:55:32;100919.38;;;10.27;96.39
72262;BME280;60173;52.112;8.648;2023-05-02T04:57:58;100934.81;;;10.27;96.49
72262;BME280;60173;52.112;8.648;2023-05-02T05:00:25;100948.59;;;10.35;96.32
72262;BME280;60173;52.112;8.648;2023-05-02T05:02:51;100942.13;;;10.26;96.12
72262;BME280;60173;52.112;8.648;2023-05-02T05:05:17;100948.72;;;10.15;96.87
72262;BME280;60173;52.112;8.648;2023-05-02T05:07:44;100941.94;;;10.17;96.89
72262;BME280;60173;52.112;8.648;2023-05-02T05:10:10;100958.31;;;10.07;97.31
72262;BME280;60173;52.112;8.648;2023-05-02T05:12:37;100957.50;;;10.07;97.25
72262;BME280;60173;52.112;8.648;2023-05-02T05:15:03;100956.41;;;10.08;97.12
72262;BME280;60173;52.112;8.648;2023-05-02T05:17:30;100958.13;;;9.93;97.31
72262;BME280;60173;52.112;8.648;2023-05-02T05:19:56;100961.75;;;9.79;97.34
72262;BME280;60173;52.112;8.648;2023-05-02T05:22:23;100967.97;;;9.79;98.22
72262;BME280;60173;52.112;8.648;2023-05-02T05:24:50;100968.22;;;9.78;97.69
72262;BME280;60173;52.112;8.648;2023-05-02T05:27:17;100984.88;;;9.61;96.92
72262;BME280;60173;52.112;8.648;2023-05-02T05:29:43;100990.34;;;9.56;97.60
72262;BME280;60173;52.112;8.648;2023-05-02T05:32:10;100995.50;;;9.52;98.11
72262;BME280;60173;52.112;8.648;2023-05-02T05:34:36;101022.97;;;9.25;96.80
72262;BME280;60173;52.112;8.648;2023-05-02T05:37:02;101017.91;;;8.77;97.45
72262;BME280;60173;52.112;8.648;2023-05-02T05:39:29;101028.72;;;8.47;97.55
72262;BME280;60173;52.112;8.648;2023-05-02T05:41:55;101030.84;;;8.34;98.02
72262;BME280;60173;52.112;8.648;2023-05-02T05:44:22;101046.78;;;8.21;98.79
72262;BME280;60173;52.112;8.648;2023-05-02T05:46:48;101050.56;;;8.14;98.85
72262;BME280;60173;52.112;8.648;2023-05-02T05:49:15;101064.84;;;7.95;98.62
72262;BME280;60173;52.112;8.648;2023-05-02T05:51:41;101065.34;;;7.81;97.72
72262;BME280;60173;52.112;8.648;2023-05-02T05:54:07;101073.13;;;7.67;97.71
72262;BME280;60173;52.112;8.648;2023-05-02T05:56:34;101067.66;;;7.52;97.85
72262;BME280;60173;52.112;8.648;2023-05-02T05:59:00;101077.59;;;7.41;98.58
72262;BME280;60173;52.112;8.648;2023-05-02T06:01:26;101082.72;;;7.43;99.49
72262;BME280;60173;52.112;8.648;2023-05-02T06:03:53;101092.47;;;7.44;99.46
72262;BME280;60173;52.112;8.648;2023-05-02T06:06:19;101090.81;;;7.38;98.71
72262;BME280;60173;52.112;8.648;2023-05-02T06:08:45;101087.53;;;7.31;99.21
72262;BME280;60173;52.112;8.648;2023-05-02T06:11:12;101105.88;;;7.29;99.69
72262;BME280;60173;52.112;8.648;2023-05-02T06:13:38;101109.66;;;7.28;99.87
72262;BME280;60173;52.112;8.648;2023-05-02T06:16:05;101112.88;;;7.24;99.51
72262;BME280;60173;52.112;8.648;2023-05-02T06:18:31;101114.97;;;7.17;99.97
72262;BME280;60173;52.112;8.648;2023-05-02T06:21:02;101123.06;;;7.12;100.00
72262;BME280;60173;52.112;8.648;2023-05-02T06:23:29;101129.00;;;7.09;100.00
72262;BME280;60173;52.112;8.648;2023-05-02T06:25:58;101137.34;;;7.08;100.00
72262;BME280;60173;52.112;8.648;2023-05-02T06:28:24;101138.47;;;7.12;100.00
72262;BME280;60173;52.112;8.648;2023-05-02T06:31:01;101144.22;;;7.25;100.00
72262;BME280;60173;52.112;8.648;2023-05-02T06:33:29;101142.59;;;7.24;100.00
72262;BME280;60173;52.112;8.648;2023-05-02T06:35:55;101143.63;;;7.18;100.00
72262;BME280;60173;52.112;8.648;2023-05-02T06:38:24;101148.47;;;7.16;100.00
72262;BME280;60173;52.112;8.648;2023-05-02T06:40:50;101158.13;;;7.07;99.41
72262;BME280;60173;52.112;8.648;2023-05-02T06:43:17;101161.41;;;7.09;98.80
72262;BME280;60173;52.112;8.648;2023-05-02T06:45:44;101156.81;;;7.10;97.09
72262;BME280;60173;52.112;8.648;2023-05-02T06:48:10;101173.25;;;7.03;96.62
72262;BME280;60173;52.112;8.648;2023-05-02T06:50:37;101171.25;;;7.25;96.65
72262;BME280;60173;52.112;8.648;2023-05-02T06:53:03;101176.72;;;7.36;93.80
72262;BME280;60173;52.112;8.648;2023-05-02T06:55:30;101184.44;;;7.54;93.72
72262;BME280;60173;52.112;8.648;2023-05-02T06:57:56;101189.75;;;7.81;92.51
72262;BME280;60173;52.112;8.648;2023-05-02T07:00:23;101193.31;;;7.87;90.45
72262;BME280;60173;52.112;8.648;2023-05-02T07:02:49;101196.50;;;7.79;89.21
72262;BME280;60173;52.112;8.648;2023-05-02T07:05:15;101204.69;;;7.94;89.12
72262;BME280;60173;52.112;8.648;2023-05-02T07:07:42;101199.78;;;7.86;85.73
72262;BME280;60173;52.112;8.648;2023-05-02T07:10:09;101204.38;;;7.85;82.81
72262;BME280;60173;52.112;8.648;2023-05-02T07:12:37;101206.31;;;7.90;83.45
72262;BME280;60173;52.112;8.648;2023-05-02T07:15:04;101213.38;;;8.01;83.49
72262;BME280;60173;52.112;8.648;2023-05-02T07:17:31;101216.59;;;7.98;81.48
72262;BME280;60173;52.112;8.648;2023-05-02T07:19:57;101212.78;;;7.89;80.56
72262;BME280;60173;52.112;8.648;2023-05-02T07:22:24;101230.03;;;7.83;81.52
72262;BME280;60173;52.112;8.648;2023-05-02T07:25:02;101231.25;;;8.02;80.64
72262;BME280;60173;52.112;8.648;2023-05-02T07:27:29;101230.84;;;7.83;80.81
72262;BME280;60173;52.112;8.648;2023-05-02T07:29:55;101242.59;;;7.99;81.37
72262;BME280;60173;52.112;8.648;2023-05-02T07:32:21;101242.03;;;7.97;81.06
72262;BME280;60173;52.112;8.648;2023-05-02T07:34:48;101248.50;;;7.91;80.15
72262;BME280;60173;52.112;8.648;2023-05-02T07:37:14;101246.44;;;8.08;79.76
72262;BME280;60173;52.112;8.648;2023-05-02T07:39:40;101249.50;;;8.27;80.21
72262;BME280;60173;52.112;8.648;2023-05-02T07:42:07;101255.75;;;8.28;78.12
72262;BME280;60173;52.112;8.648;2023-05-02T07:44:33;101260.31;;;8.22;79.04
72262;BME280;60173;52.112;8.648;2023-05-02T07:46:59;101259.50;;;8.22;79.56
72262;BME280;60173;52.112;8.648;2023-05-02T07:49:25;101265.91;;;8.58;80.29
72262;BME280;60173;52.112;8.648;2023-05-02T07:51:52;101261.31;;;8.53;79.25
72262;BME280;60173;52.112;8.648;2023-05-02T07:54:19;101273.06;;;8.32;78.88
72262;BME280;60173;52.112;8.648;2023-05-02T07:56:46;101266.13;;;8.46;77.88
72262;BME280;60173;52.112;8.648;2023-05-02T07:59:12;101273.75;;;8.54;77.86
72262;BME280;60173;52.112;8.648;2023-05-02T08:01:39;101279.13;;;8.39;76.35
72262;BME280;60173;52.112;8.648;2023-05-02T08:04:06;101274.00;;;8.48;78.03
72262;BME280;60173;52.112;8.648;2023-05-02T08:06:33;101284.28;;;8.46;76.86
72262;BME280;60173;52.112;8.648;2023-05-02T08:09:00;101287.31;;;8.12;77.73
72262;BME280;60173;52.112;8.648;2023-05-02T08:11:26;101290.56;;;8.14;77.36
72262;BME280;60173;52.112;8.648;2023-05-02T08:13:53;101298.59;;;7.99;77.49
72262;BME280;60173;52.112;8.648;2023-05-02T08:16:20;101294.81;;;8.00;77.37
72262;BME280;60173;52.112;8.648;2023-05-02T08:18:46;101313.31;;;8.13;77.60
72262;BME280;60173;52.112;8.648;2023-05-02T08:21:13;101314.88;;;8.09;77.23
72262;BME280;60173;52.112;8.648;2023-05-02T08:23:40;101316.78;;;8.08;76.45
72262;BME280;60173;52.112;8.648;2023-05-02T08:26:07;101320.47;;;7.97;76.90
72262;BME280;60173;52.112;8.648;2023-05-02T08:28:33;101333.63;;;7.83;77.25
72262;BME280;60173;52.112;8.648;2023-05-02T08:30:59;101334.41;;;7.79;77.67
72262;BME280;60173;52.112;8.648;2023-05-02T08:33:26;101333.31;;;7.80;78.10
72262;BME280;60173;52.112;8.648;2023-05-02T08:35:52;101338.75;;;7.80;78.43
72262;BME280;60173;52.112;8.648;2023-05-02T08:38:18;101337.63;;;7.76;77.98
72262;BME280;60173;52.112;8.648;2023-05-02T08:40:45;101341.25;;;7.91;78.01
72262;BME280;60173;52.112;8.648;2023-05-02T08:43:11;101346.44;;;7.98;76.35
72262;BME280;60173;52.112;8.648;2023-05-02T08:45:40;101348.19;;;8.14;75.45
72262;BME280;60173;52.112;8.648;2023-05-02T08:48:08;101357.25;;;8.30;75.49
72262;BME280;60173;52.112;8.648;2023-05-02T08:50:40;101352.84;;;8.62;75.10
72262;BME280;60173;52.112;8.648;2023-05-02T08:53:08;101358.91;;;8.84;72.50
72262;BME280;60173;52.112;8.648;2023-05-02T08:55:37;101354.09;;;9.01;70.75
72262;BME280;60173;52.112;8.648;2023-05-02T08:58:05;101355.28;;;8.58;70.80
72262;BME280;60173;52.112;8.648;2023-05-02T09:00:38;101357.75;;;8.70;71.42
72262;BME280;60173;52.112;8.648;2023-05-02T09:03:22;101361.97;;;8.45;71.62
72262;BME280;60173;52.112;8.648;2023-05-02T09:08:30;101363.78;;;8.77;70.23
72262;BME280;60173;52.112;8.648;2023-05-02T09:10:56;101373.03;;;8.86;68.23
72262;BME280;60173;52.112;8.648;2023-05-02T09:13:39;101362.81;;;9.14;67.29
72262;BME280;60173;52.112;8.648;2023-05-02T09:16:14;101360.44;;;9.27;66.63
72262;BME280;60173;52.112;8.648;2023-05-02T09:21:16;101378.63;;;9.47;66.17
72262;BME280;60173;52.112;8.648;2023-05-02T09:23:54;101382.81;;;9.02;67.66
72262;BME280;60173;52.112;8.648;2023-05-02T09:26:26;101389.91;;;9.03;68.39
72262;BME280;60173;52.112;8.648;2023-05-02T09:28:56;101404.56;;;9.13;68.06
72262;BME280;60173;52.112;8.648;2023-05-02T09:31:25;101398.25;;;8.92;67.57
72262;BME280;60173;52.112;8.648;2023-05-02T09:34:15;101399.50;;;8.74;69.93
72262;BME280;60173;52.112;8.648;2023-05-02T09:36:47;101396.69;;;8.53;69.36
72262;BME280;60173;52.112;8.648;2023-05-02T09:39:16;101403.97;;;8.53;69.54
72262;BME280;60173;52.112;8.648;2023-05-02T09:41:44;101412.94;;;8.58;68.90
72262;BME280;60173;52.112;8.648;2023-05-02T09:44:12;101407.53;;;8.53;68.63
72262;BME280;60173;52.112;8.648;2023-05-02T09:46:47;101419.06;;;8.44;69.41
72262;BME280;60173;52.112;8.648;2023-05-02T09:49:14;101421.00;;;8.48;69.72
72262;BME280;60173;52.112;8.648;2023-05-02T09:51:41;101422.25;;;8.73;69.66
72262;BME280;60173;52.112;8.648;2023-05-02T09:54:07;101437.44;;;8.74;68.31
72262;BME280;60173;52.112;8.648;2023-05-02T09:56:53;101436.91;;;8.77;66.96
72262;BME280;60173;52.112;8.648;2023-05-02T09:59:20;101438.03;;;8.86;67.56
72262;BME280;60173;52.112;8.648;2023-05-02T10:02:05;101432.16;;;8.57;67.54
72262;BME280;60173;52.112;8.648;2023-05-02T10:04:32;101444.94;;;8.67;68.72
72262;BME280;60173;52.112;8.648;2023-05-02T10:07:01;101444.25;;;8.87;68.56
72262;BME280;60173;52.112;8.648;2023-05-02T10:09:28;101439.00;;;8.70;68.14
72262;BME280;60173;52.112;8.648;2023-05-02T10:11:55;101453.84;;;8.57;68.45
72262;BME280;60173;52.112;8.648;2023-05-02T10:14:23;101444.84;;;8.94;66.43
72262;BME280;60173;52.112;8.648;2023-05-02T10:17:12;101453.59;;;8.64;66.51
72262;BME280;60173;52.112;8.648;2023-05-02T10:19:51;101452.50;;;8.65;66.18
72262;BME280;60173;52.112;8.648;2023-05-02T10:22:19;101452.63;;;8.85;64.90
72262;BME280;60173;52.112;8.648;2023-05-02T10:24:49;101458.91;;;8.86;65.51
72262;BME280;60173;52.112;8.648;2023-05-02T10:27:17;101457.56;;;8.93;64.16
72262;BME280;60173;52.112;8.648;2023-05-02T10:29:45;101453.91;;;9.20;65.22
72262;BME280;60173;52.112;8.648;2023-05-02T10:32:13;101456.13;;;9.28;62.31
72262;BME280;60173;52.112;8.648;2023-05-02T10:34:40;101458.91;;;9.43;63.04
72262;BME280;60173;52.112;8.648;2023-05-02T10:37:07;101467.19;;;9.16;63.55
72262;BME280;60173;52.112;8.648;2023-05-02T10:39:33;101456.31;;;9.11;64.10
72262;BME280;60173;52.112;8.648;2023-05-02T10:42:02;101463.78;;;9.51;64.00
72262;BME280;60173;52.112;8.648;2023-05-02T10:44:37;101467.72;;;9.96;62.28
72262;BME280;60173;52.112;8.648;2023-05-02T10:47:20;101471.56;;;10.31;60.35
72262;BME280;60173;52.112;8.648;2023-05-02T10:52:31;101481.84;;;10.09;62.12
72262;BME280;60173;52.112;8.648;2023-05-02T10:55:17;101473.00;;;9.50;61.07
72262;BME280;60173;52.112;8.648;2023-05-02T11:00:26;101473.00;;;9.45;61.67
72262;BME280;60173;52.112;8.648;2023-05-02T11:02:53;101474.31;;;9.33;60.68
72262;BME280;60173;52.112;8.648;2023-05-02T11:05:21;101477.41;;;9.62;59.78
72262;BME280;60173;52.112;8.648;2023-05-02T11:07:48;101481.22;;;9.71;60.28
72262;BME280;60173;52.112;8.648;2023-05-02T11:12:45;101477.81;;;10.68;58.34
72262;BME280;60173;52.112;8.648;2023-05-02T11:15:13;101479.81;;;11.37;55.70
72262;BME280;60173;52.112;8.648;2023-05-02T11:18:05;101478.09;;;10.51;57.35
72262;BME280;60173;52.112;8.648;2023-05-02T11:20:32;101484.53;;;9.99;58.39
72262;BME280;60173;52.112;8.648;2023-05-02T11:25:48;101484.28;;;10.21;57.49
72262;BME280;60173;52.112;8.648;2023-05-02T11:31:07;101479.28;;;11.90;54.46
72262;BME280;60173;52.112;8.648;2023-05-02T11:33:34;101480.28;;;10.59;56.05
72262;BME280;60173;52.112;8.648;2023-05-02T11:36:00;101485.44;;;10.45;55.10
72262;BME280;60173;52.112;8.648;2023-05-02T11:38:35;101478.34;;;10.75;56.16
72262;BME280;60173;52.112;8.648;2023-05-02T11:41:02;101481.34;;;10.27;55.25
72262;BME280;60173;52.112;8.648;2023-05-02T11:43:28;101486.22;;;10.71;56.84
72262;BME280;60173;52.112;8.648;2023-05-02T11:45:58;101496.53;;;10.38;55.38
72262;BME280;60173;52.112;8.648;2023-05-02T11:48:26;101498.72;;;10.36;55.87
72262;BME280;60173;52.112;8.648;2023-05-02T11:50:57;101503.88;;;10.74;54.26
72262;BME280;60173;52.112;8.648;2023-05-02T11:53:25;101498.41;;;10.89;53.69
72262;BME280;60173;52.112;8.648;2023-05-02T11:55:59;101505.16;;;9.89;55.08
72262;BME280;60173;52.112;8.648;2023-05-02T11:58:28;101498.69;;;10.16;54.70
72262;BME280;60173;52.112;8.648;2023-05-02T12:00:55;101513.94;;;10.43;56.29
72262;BME280;60173;52.112;8.648;2023-05-02T12:03:29;101508.22;;;10.80;52.42
72262;BME280;60173;52.112;8.648;2023-05-02T12:05:57;101520.94;;;10.08;54.38
72262;BME280;60173;52.112;8.648;2023-05-02T12:08:33;101523.63;;;9.92;53.67
72262;BME280;60173;52.112;8.648;2023-05-02T12:10:59;101519.91;;;10.50;52.94
72262;BME280;60173;52.112;8.648;2023-05-02T12:13:26;101524.81;;;10.43;52.06
72262;BME280;60173;52.112;8.648;2023-05-02T12:15:53;101531.84;;;10.44;53.44
72262;BME280;60173;52.112;8.648;2023-05-02T12:18:21;101536.75;;;10.57;54.27
72262;BME280;60173;52.112;8.648;2023-05-02T12:20:49;101532.41;;;10.46;52.24
72262;BME280;60173;52.112;8.648;2023-05-02T12:23:18;101531.31;;;10.77;51.54
72262;BME280;60173;52.112;8.648;2023-05-02T12:25:45;101527.81;;;11.72;52.82
72262;BME280;60173;52.112;8.648;2023-05-02T12:28:11;101523.53;;;12.50;48.54
72262;BME280;60173;52.112;8.648;2023-05-02T12:30:38;101522.03;;;12.63;48.39
72262;BME280;60173;52.112;8.648;2023-05-02T12:33:05;101536.88;;;12.12;47.15
72262;BME280;60173;52.112;8.648;2023-05-02T12:35:33;101539.22;;;11.74;49.11
72262;BME280;60173;52.112;8.648;2023-05-02T12:38:08;101541.31;;;11.98;49.88
72262;BME280;60173;52.112;8.648;2023-05-02T12:40:35;101543.72;;;12.05;50.14
72262;BME280;60173;52.112;8.648;2023-05-02T12:43:03;101540.31;;;11.68;48.66
72262;BME280;60173;52.112;8.648;2023-05-02T12:45:30;101549.13;;;11.40;51.06
72262;BME280;60173;52.112;8.648;2023-05-02T12:47:56;101544.53;;;11.40;49.73
72262;BME280;60173;52.112;8.648;2023-05-02T12:50:37;101564.06;;;11.47;49.44
72262;BME280;60173;52.112;8.648;2023-05-02T12:53:03;101558.94;;;11.46;48.57
72262;BME280;60173;52.112;8.648;2023-05-02T12:55:30;101551.41;;;10.97;49.36
72262;BME280;60173;52.112;8.648;2023-05-02T12:58:06;101552.34;;;9.78;50.75
72262;BME280;60173;52.112;8.648;2023-05-02T13:00:36;101559.81;;;9.56;52.64
72262;BME280;60173;52.112;8.648;2023-05-02T13:03:03;101554.81;;;9.90;52.44
72262;BME280;60173;52.112;8.648;2023-05-02T13:05:30;101559.81;;;10.34;51.31
72262;BME280;60173;52.112;8.648;2023-05-02T13:07:56;101560.09;;;11.04;49.58
72262;BME280;60173;52.112;8.648;2023-05-02T13:10:23;101557.97;;;11.76;48.70
72262;BME280;60173;52.112;8.648;2023-05-02T13:12:49;101553.91;;;12.68;46.85
72262;BME280;60173;52.112;8.648;2023-05-02T13:15:16;101550.22;;;13.11;44.11
72262;BME280;60173;52.112;8.648;2023-05-02T13:17:42;101564.16;;;12.02;49.16
72262;BME280;60173;52.112;8.648;2023-05-02T13:20:09;101556.94;;;11.62;48.13
72262;BME280;60173;52.112;8.648;2023-05-02T13:22:37;101563.88;;;11.28;48.99
72262;BME280;60173;52.112;8.648;2023-05-02T13:25:04;101562.81;;;10.99;49.16
72262;BME280;60173;52.112;8.648;2023-05-02T13:27:31;101566.34;;;11.09;48.24
72262;BME280;60173;52.112;8.648;2023-05-02T13:29:58;101572.47;;;11.61;48.60
72262;BME280;60173;52.112;8.648;2023-05-02T13:32:24;101566.53;;;11.39;48.81